Startpagina
METAR-TAF:

METAR-TAF

Vliegvelden :

Groningen Airport Eelde

Groningen, Nederland

breedte: 53-08N, lengte: 006-35E, hoogte: 4 m

Actueel weer

Dit bericht is 26 minuten geleden gemaakt, om 18:25 UTC
Wind 8 kt uit het noorden, variërend tussen het noordwesten en het noordoosten
Temperatuur 14°C
Vochtigheid 77%
Druk 1013 hPa
Zicht 10 km of meer
Weinig wolken op 1800 ft

METAR: EHGG 211825Z AUTO 36008KT 310V040 9999 FEW018 14/10 Q1013 NOSIG

Tijdstip: 20:51 (18:51 UTC)

Verwachting

Dit bericht is 1 uur en het 34 minuten geleden gemaakt, om 17:17 UTC
Verwachting geldig van 21 om 18 UTC tot 22 om 24 UTC
Wind 9 kt uit het noorden
Zicht 10 km of meer
Gebroken wolken op 2000 ft

TAF: EHGG 211717Z 2118/2224 36009KT 9999 BKN020

Waarnemingen en weersverwachtingen van meer dan 4000 vliegvelden (METAR en TAF).

De beschikbare stations zijn de gele en rode punten op de kaart.

Ga met uw muis naar het station om de naam te zien.

Klik dan om waarnemingen en weersverwachtingen te zien.

kaart wijzigen: klik op de groene knoppen met een zwart kruis om in te zoomen, op de groene knop met een streepje om uit te zoomen of op de groene pijlen voor aangrenzende kaarten.


METAR-TAF: